Time;durP1;ratioP1;P1;durP2;ratioP2;P2;SDS_P1;SDS_P2;PMS_P1;PMS_P2;Temp;Humidity;BMP_temperature;BMP_pressure;BME280_temperature;BME280_humidity;BME280_pressure;Samples;Min_cycle;Max_cycle;Signal;HPM_P1;HPM_P2
2023/09/25 00:00:33;;;;;;;4.00;3.57;;;12.20;99.90;;;;;;5010963;28;20180;-71
2023/09/25 00:03:00;;;;;;;3.77;3.47;;;12.10;99.90;;;;;;5011514;28;20179;-72
2023/09/25 00:05:26;;;;;;;3.43;3.23;;;12.10;99.90;;;;;;5009938;28;20190;-71
2023/09/25 00:07:52;;;;;;;4.37;3.70;;;12.20;99.90;;;;;;5009878;28;20644;-71
2023/09/25 00:10:18;;;;;;;3.67;3.40;;;12.20;99.90;;;;;;5010819;28;20210;-71
2023/09/25 00:12:44;;;;;;;3.97;3.67;;;12.20;99.90;;;;;;5014611;28;20589;-72
2023/09/25 00:15:10;;;;;;;3.93;3.57;;;12.20;99.90;;;;;;5015099;28;20547;-71
2023/09/25 00:17:36;;;;;;;3.83;3.43;;;12.20;99.90;;;;;;5016439;28;20187;-72
2023/09/25 00:20:04;;;;;;;5.17;3.70;;;12.20;99.90;;;;;;5014841;28;20289;-73
2023/09/25 00:22:32;;;;;;;4.13;3.70;;;12.20;99.90;;;;;;5014818;28;20307;-72
2023/09/25 00:24:57;;;;;;;4.37;3.80;;;12.20;99.90;;;;;;5015003;28;20179;-72
2023/09/25 00:27:24;;;;;;;4.17;3.83;;;12.20;99.90;;;;;;5029164;28;20571;-71
2023/09/25 00:29:49;;;;;;;7.27;3.80;;;12.20;99.90;;;;;;5014813;28;20244;-71
2023/09/25 00:32:15;;;;;;;5.20;3.50;;;12.20;99.90;;;;;;5014592;28;20651;-71
2023/09/25 00:34:41;;;;;;;4.20;3.80;;;12.20;99.90;;;;;;5014831;28;20184;-71
2023/09/25 00:37:07;;;;;;;4.13;3.73;;;12.10;99.90;;;;;;5014823;28;20238;-71
2023/09/25 00:39:33;;;;;;;3.80;3.40;;;12.10;99.90;;;;;;5014541;28;20208;-72
2023/09/25 00:41:59;;;;;;;4.87;3.50;;;12.10;99.90;;;;;;5014615;28;20214;-72
2023/09/25 00:44:25;;;;;;;3.67;3.17;;;12.10;99.90;;;;;;5014633;28;20187;-72
2023/09/25 00:46:51;;;;;;;5.70;3.40;;;12.20;99.90;;;;;;5014481;28;20184;-72
2023/09/25 00:49:17;;;;;;;4.57;3.50;;;12.20;99.90;;;;;;5014311;28;20215;-72
2023/09/25 00:51:44;;;;;;;3.83;3.57;;;12.20;99.90;;;;;;5014201;28;20172;-72
2023/09/25 00:54:11;;;;;;;3.30;3.10;;;12.20;99.90;;;;;;5014370;28;20172;-72
2023/09/25 00:56:37;;;;;;;3.50;3.30;;;12.20;99.90;;;;;;5017707;28;20179;-72
2023/09/25 00:59:03;;;;;;;3.77;3.40;;;12.20;99.90;;;;;;5014227;28;20208;-71
2023/09/25 01:01:29;;;;;;;3.93;3.63;;;12.20;99.90;;;;;;5013953;28;20180;-71
2023/09/25 01:03:55;;;;;;;4.17;3.77;;;12.20;99.90;;;;;;5018600;28;20275;-72
2023/09/25 01:06:21;;;;;;;3.40;3.20;;;12.20;99.90;;;;;;5018138;28;20191;-72
2023/09/25 01:08:46;;;;;;;3.80;3.50;;;12.20;99.90;;;;;;5012625;28;20204;-72
2023/09/25 01:11:12;;;;;;;4.70;3.70;;;12.20;99.90;;;;;;5014027;28;20219;-71
2023/09/25 01:13:38;;;;;;;5.17;3.60;;;12.20;99.90;;;;;;5018288;28;20647;-71
2023/09/25 01:16:04;;;;;;;4.07;3.77;;;12.20;99.90;;;;;;5017103;28;20188;-71
2023/09/25 01:18:29;;;;;;;3.80;3.50;;;12.10;99.90;;;;;;5013885;28;20196;-72
2023/09/25 01:20:55;;;;;;;3.50;3.30;;;12.10;99.90;;;;;;5012429;28;20599;-72
2023/09/25 01:23:21;;;;;;;3.70;3.33;;;12.10;99.90;;;;;;5013276;28;20187;-72
2023/09/25 01:25:46;;;;;;;4.20;3.80;;;12.10;99.90;;;;;;5013760;28;20176;-72
2023/09/25 01:28:12;;;;;;;3.80;3.50;;;12.10;99.90;;;;;;5013869;28;20212;-72
2023/09/25 01:30:38;;;;;;;3.50;3.20;;;12.00;99.90;;;;;;5013554;28;20191;-72
2023/09/25 01:33:04;;;;;;;3.83;3.53;;;12.00;99.90;;;;;;5013705;28;20258;-72
2023/09/25 01:35:30;;;;;;;3.80;3.50;;;12.00;99.90;;;;;;5013571;28;20663;-71
2023/09/25 01:38:00;;;;;;;3.30;3.10;;;11.90;99.90;;;;;;5013560;28;20177;-72
2023/09/25 01:40:27;;;;;;;3.97;3.67;;;11.90;99.90;;;;;;5011780;28;20184;-71
2023/09/25 01:42:52;;;;;;;5.33;3.70;;;11.90;99.90;;;;;;5013415;28;20188;-72
2023/09/25 01:45:19;;;;;;;5.53;3.77;;;11.90;99.90;;;;;;5013677;28;20184;-72
2023/09/25 01:47:52;;;;;;;7.10;3.47;;;11.80;99.90;;;;;;5013500;28;20184;-72
2023/09/25 01:50:23;;;;;;;4.10;3.80;;;11.80;99.90;;;;;;5013296;28;20675;-72
2023/09/25 01:52:57;;;;;;;3.50;3.20;;;11.80;99.90;;;;;;5013317;28;20177;-71
2023/09/25 01:55:22;;;;;;;3.90;3.60;;;11.70;99.90;;;;;;5013424;28;20180;-71
2023/09/25 01:57:48;;;;;;;4.20;3.80;;;11.60;99.90;;;;;;5013110;28;20223;-71
2023/09/25 02:00:16;;;;;;;5.37;3.63;;;11.60;99.90;;;;;;5012871;28;20609;-71
2023/09/25 02:02:42;;;;;;;4.27;3.97;;;11.50;99.90;;;;;;5012931;28;20183;-71
2023/09/25 02:05:07;;;;;;;4.07;3.77;;;11.50;99.90;;;;;;5013014;28;20212;-71
2023/09/25 02:07:33;;;;;;;4.23;3.83;;;11.50;99.90;;;;;;5012897;28;20643;-71
2023/09/25 02:09:59;;;;;;;5.10;3.97;;;11.40;99.90;;;;;;5013218;28;20203;-71
2023/09/25 02:12:25;;;;;;;3.93;3.63;;;11.40;99.90;;;;;;5012802;28;20195;-71
2023/09/25 02:14:52;;;;;;;4.37;3.97;;;11.40;99.90;;;;;;5012604;28;20214;-71
2023/09/25 02:17:18;;;;;;;5.00;4.57;;;11.40;99.90;;;;;;5012956;28;20207;-71
2023/09/25 02:19:44;;;;;;;4.17;3.77;;;11.30;99.90;;;;;;5011658;28;20695;-71
2023/09/25 02:22:10;;;;;;;4.53;4.13;;;11.30;99.90;;;;;;5013036;28;20253;-71
2023/09/25 02:24:37;;;;;;;4.30;4.00;;;11.30;99.90;;;;;;5011601;28;20194;-71
2023/09/25 02:27:02;;;;;;;4.10;3.80;;;11.20;99.90;;;;;;5012794;28;20279;-71
2023/09/25 02:29:29;;;;;;;3.70;3.50;;;11.20;99.90;;;;;;5012546;28;20304;-71
2023/09/25 02:31:54;;;;;;;4.20;3.90;;;11.20;99.90;;;;;;5012677;28;20176;-71
2023/09/25 02:34:20;;;;;;;7.50;4.20;;;11.20;99.90;;;;;;5012148;28;20180;-71
2023/09/25 02:36:46;;;;;;;4.73;3.80;;;11.20;99.90;;;;;;5014863;28;20298;-71
2023/09/25 02:39:13;;;;;;;4.40;4.10;;;11.20;99.90;;;;;;5012511;28;20692;-71
2023/09/25 02:41:39;;;;;;;4.73;4.33;;;11.20;99.90;;;;;;5012246;28;20211;-71
2023/09/25 02:44:05;;;;;;;4.13;3.83;;;11.20;99.90;;;;;;5011808;28;20192;-71
2023/09/25 02:46:30;;;;;;;4.47;4.10;;;11.20;99.90;;;;;;5013454;28;20617;-71
2023/09/25 02:48:56;;;;;;;4.23;3.93;;;11.20;99.90;;;;;;5012197;28;20269;-72
2023/09/25 02:51:22;;;;;;;4.40;4.00;;;11.10;99.90;;;;;;5018333;28;20234;-71
2023/09/25 02:53:47;;;;;;;4.70;4.30;;;11.10;99.90;;;;;;5012524;28;20751;-71
2023/09/25 02:56:13;;;;;;;5.07;4.20;;;11.10;99.90;;;;;;5014236;28;20192;-70
2023/09/25 02:58:38;;;;;;;4.50;4.10;;;11.00;99.90;;;;;;5012235;28;20211;-71
2023/09/25 03:01:04;;;;;;;4.93;4.33;;;10.90;99.90;;;;;;5012040;28;20652;-70
2023/09/25 03:03:30;;;;;;;5.17;4.70;;;10.90;99.90;;;;;;5010799;28;20180;-70
2023/09/25 03:05:55;;;;;;;4.27;3.97;;;10.80;99.90;;;;;;5012146;28;20660;-70
2023/09/25 03:08:21;;;;;;;4.50;4.10;;;10.80;99.90;;;;;;5011894;28;20207;-71
2023/09/25 03:10:47;;;;;;;5.30;4.70;;;10.80;99.90;;;;;;5011756;28;20188;-70
2023/09/25 03:13:12;;;;;;;4.23;3.90;;;10.80;99.90;;;;;;5012088;28;20649;-70
2023/09/25 03:15:38;;;;;;;4.93;4.43;;;10.70;99.90;;;;;;5011727;28;20187;-70
2023/09/25 03:18:04;;;;;;;4.77;4.47;;;10.70;99.90;;;;;;5011999;28;20196;-70
2023/09/25 03:20:30;;;;;;;4.40;4.10;;;10.70;99.90;;;;;;5011749;28;20199;-70
2023/09/25 03:22:56;;;;;;;4.80;4.40;;;10.70;99.90;;;;;;5012044;28;20180;-70
2023/09/25 03:25:22;;;;;;;4.53;4.13;;;10.70;99.90;;;;;;5011924;28;20176;-70
2023/09/25 03:27:49;;;;;;;5.23;4.83;;;10.60;99.90;;;;;;5011743;28;20180;-70
2023/09/25 03:30:15;;;;;;;4.87;4.47;;;10.60;99.90;;;;;;5011488;28;20291;-70
2023/09/25 03:32:41;;;;;;;4.57;4.20;;;10.50;99.90;;;;;;5011737;28;20183;-72
2023/09/25 03:35:08;;;;;;;4.80;4.40;;;10.50;99.90;;;;;;5011810;28;20522;-72
2023/09/25 03:37:33;;;;;;;5.20;4.70;;;10.50;99.90;;;;;;5011755;28;20671;-72
2023/09/25 03:39:59;;;;;;;4.90;4.50;;;10.40;99.90;;;;;;5011675;28;20208;-71
2023/09/25 03:42:25;;;;;;;6.53;5.00;;;10.40;99.90;;;;;;5011531;28;20207;-71
2023/09/25 03:44:51;;;;;;;4.37;4.07;;;10.40;99.90;;;;;;5010221;28;20215;-70
2023/09/25 03:47:19;;;;;;;5.00;4.60;;;10.30;99.90;;;;;;5011305;28;20230;-70
2023/09/25 03:49:44;;;;;;;9.57;5.67;;;10.30;99.90;;;;;;5011456;28;20212;-71
2023/09/25 03:52:10;;;;;;;5.87;5.27;;;10.20;99.90;;;;;;5013155;28;20193;-71
2023/09/25 03:54:36;;;;;;;5.00;4.60;;;10.20;99.90;;;;;;5015071;28;20225;-71
2023/09/25 03:57:01;;;;;;;5.23;4.73;;;10.10;99.90;;;;;;5011586;28;20659;-71
2023/09/25 03:59:27;;;;;;;4.77;4.47;;;10.10;99.90;;;;;;5011411;28;20757;-71
2023/09/25 04:01:52;;;;;;;6.10;4.77;;;10.10;99.90;;;;;;5011262;28;20192;-71
2023/09/25 04:04:18;;;;;;;4.90;4.60;;;10.10;99.90;;;;;;5011381;28;20180;-70
2023/09/25 04:06:44;;;;;;;5.23;4.83;;;10.10;99.90;;;;;;5010025;28;20648;-70
2023/09/25 04:09:10;;;;;;;5.53;4.40;;;10.10;99.90;;;;;;5014694;28;20210;-71
2023/09/25 04:11:35;;;;;;;5.40;4.60;;;10.10;99.90;;;;;;5014351;28;20658;-71
2023/09/25 04:14:02;;;;;;;5.67;4.90;;;10.00;99.90;;;;;;5016370;28;20176;-71
2023/09/25 04:16:28;;;;;;;5.20;4.70;;;10.00;99.90;;;;;;5012124;28;20234;-71
2023/09/25 04:18:54;;;;;;;6.03;4.73;;;10.00;99.90;;;;;;5013445;28;20215;-72
2023/09/25 04:21:21;;;;;;;5.77;4.90;;;10.00;99.90;;;;;;5011036;28;20184;-72
2023/09/25 04:23:47;;;;;;;5.57;5.07;;;10.00;99.90;;;;;;5011288;28;20606;-71
2023/09/25 04:26:13;;;;;;;9.70;5.53;;;10.00;99.90;;;;;;5009867;28;20207;-71
2023/09/25 04:28:40;;;;;;;5.87;5.37;;;10.00;99.90;;;;;;5011057;28;20290;-71
2023/09/25 04:31:06;;;;;;;5.67;5.17;;;10.00;99.90;;;;;;5012621;28;20206;-72
2023/09/25 04:33:33;;;;;;;6.23;5.63;;;10.00;99.90;;;;;;5011343;28;20260;-71
2023/09/25 04:36:01;;;;;;;6.53;6.00;;;10.00;99.90;;;;;;5014870;28;20180;-72
2023/09/25 04:38:27;;;;;;;5.77;5.33;;;10.00;99.90;;;;;;5011036;28;20246;-72
2023/09/25 04:40:52;;;;;;;7.13;5.43;;;10.00;99.90;;;;;;5009428;28;20270;-71
2023/09/25 04:43:18;;;;;;;6.20;5.67;;;10.00;99.90;;;;;;5011044;28;20283;-71
2023/09/25 04:45:45;;;;;;;6.30;5.70;;;10.00;99.90;;;;;;5011148;28;20215;-71
2023/09/25 04:48:11;;;;;;;5.83;5.40;;;10.00;99.90;;;;;;5014037;28;20208;-72
2023/09/25 04:50:37;;;;;;;5.93;5.53;;;10.00;99.90;;;;;;5015742;28;20670;-72
2023/09/25 04:53:05;;;;;;;6.77;6.07;;;10.00;99.90;;;;;;5010876;28;20180;-71
2023/09/25 04:55:32;;;;;;;6.40;5.77;;;10.00;99.90;;;;;;5011081;28;20189;-71
2023/09/25 04:57:57;;;;;;;6.10;5.60;;;10.00;99.90;;;;;;5011245;28;20172;-70
2023/09/25 05:00:27;;;;;;;6.97;6.27;;;10.00;99.90;;;;;;5020205;28;20392;-71
2023/09/25 05:02:54;;;;;;;6.73;6.20;;;10.10;99.90;;;;;;5014298;28;20180;-72
2023/09/25 05:05:20;;;;;;;6.13;5.60;;;10.10;99.90;;;;;;5016856;28;20262;-70
2023/09/25 05:07:50;;;;;;;6.30;5.80;;;10.10;99.90;;;;;;5015932;28;20314;-71
2023/09/25 05:10:27;;;;;;;6.20;5.60;;;10.10;99.90;;;;;;5012731;28;20208;-70
2023/09/25 05:12:54;;;;;;;6.50;5.90;;;10.20;99.90;;;;;;5014130;28;20549;-71
2023/09/25 05:15:20;;;;;;;7.47;5.83;;;10.20;99.90;;;;;;5013655;28;20176;-71
2023/09/25 05:17:47;;;;;;;6.70;6.20;;;10.20;99.90;;;;;;5013862;28;20306;-70
2023/09/25 05:20:18;;;;;;;9.07;5.73;;;10.30;99.90;;;;;;5016809;28;20183;-70
2023/09/25 05:22:54;;;;;;;6.03;5.53;;;10.30;99.90;;;;;;5019301;28;20179;-70
2023/09/25 05:25:21;;;;;;;7.40;6.17;;;10.30;99.90;;;;;;5014096;28;20184;-70
2023/09/25 05:27:49;;;;;;;7.03;5.20;;;10.30;99.90;;;;;;5013626;28;20550;-71
2023/09/25 05:30:17;;;;;;;5.80;5.30;;;10.30;99.90;;;;;;5017314;28;20208;-70
2023/09/25 05:32:46;;;;;;;6.93;5.63;;;10.30;99.90;;;;;;5013685;28;20180;-70
2023/09/25 05:35:12;;;;;;;6.33;5.83;;;10.40;99.90;;;;;;5018113;28;20183;-71
2023/09/25 05:37:38;;;;;;;9.00;6.20;;;10.40;99.90;;;;;;5017441;28;20172;-71
2023/09/25 05:40:14;;;;;;;6.70;6.00;;;10.40;99.90;;;;;;5016038;28;20212;-70
2023/09/25 05:42:42;;;;;;;6.17;5.67;;;10.40;99.90;;;;;;5013536;28;20196;-71
2023/09/25 05:45:08;;;;;;;7.93;5.57;;;10.50;99.90;;;;;;5012005;28;20180;-71
2023/09/25 05:47:34;;;;;;;6.03;5.43;;;10.50;99.90;;;;;;5012082;28;20188;-71
2023/09/25 05:50:00;;;;;;;6.67;5.70;;;10.60;99.90;;;;;;5013130;28;20212;-71
2023/09/25 05:52:26;;;;;;;8.37;5.00;;;10.60;99.90;;;;;;5011826;28;20172;-71
2023/09/25 05:54:52;;;;;;;5.37;4.77;;;10.70;99.90;;;;;;5013320;28;20172;-72
2023/09/25 05:57:18;;;;;;;5.87;5.27;;;10.70;99.90;;;;;;5011835;28;20237;-71
2023/09/25 05:59:44;;;;;;;7.60;5.10;;;10.80;99.90;;;;;;5013121;28;20231;-71
2023/09/25 06:02:10;;;;;;;6.90;5.40;;;10.80;99.90;;;;;;5013225;28;20244;-71
2023/09/25 06:04:36;;;;;;;6.00;5.50;;;10.90;99.90;;;;;;5013490;28;20183;-71
2023/09/25 06:07:03;;;;;;;5.47;4.97;;;10.90;99.90;;;;;;5013050;28;20674;-70
2023/09/25 06:09:29;;;;;;;5.67;5.17;;;11.00;99.90;;;;;;5012916;28;20208;-70
2023/09/25 06:11:55;;;;;;;6.67;6.03;;;11.10;99.90;;;;;;5012912;28;20644;-71
2023/09/25 06:14:21;;;;;;;4.80;4.40;;;11.10;99.90;;;;;;5012328;28;20183;-71
2023/09/25 06:16:48;;;;;;;6.80;4.73;;;11.20;99.90;;;;;;5012418;28;20172;-71
2023/09/25 06:19:14;;;;;;;5.50;4.90;;;11.30;99.90;;;;;;5012565;28;20196;-71
2023/09/25 06:21:40;;;;;;;4.90;4.50;;;11.40;99.90;;;;;;5012601;28;20711;-72
2023/09/25 06:24:09;;;;;;;5.73;4.87;;;11.50;99.90;;;;;;5012780;28;20184;-71
2023/09/25 06:26:39;;;;;;;5.67;5.07;;;11.60;99.90;;;;;;5012764;28;20176;-71
2023/09/25 06:29:06;;;;;;;5.30;4.30;;;11.70;99.90;;;;;;5012353;28;20222;-71
2023/09/25 06:31:32;;;;;;;9.30;4.83;;;11.80;99.90;;;;;;5012520;28;20222;-71
2023/09/25 06:33:57;;;;;;;6.77;4.37;;;12.00;99.90;;;;;;5012056;28;20643;-72
2023/09/25 06:36:23;;;;;;;6.80;4.43;;;12.10;99.90;;;;;;5012519;28;20294;-71
2023/09/25 06:38:49;;;;;;;4.40;4.00;;;12.30;99.90;;;;;;5012293;28;20235;-71
2023/09/25 06:41:14;;;;;;;5.23;4.23;;;12.70;99.90;;;;;;5012087;28;20188;-72
2023/09/25 06:43:40;;;;;;;4.13;3.80;;;13.30;99.90;;;;;;5012377;28;20199;-72
2023/09/25 06:46:05;;;;;;;4.83;3.80;;;13.90;99.90;;;;;;5012223;28;20203;-72
2023/09/25 06:48:32;;;;;;;3.73;3.10;;;14.60;99.90;;;;;;5012486;28;20338;-72
2023/09/25 06:50:58;;;;;;;3.40;3.10;;;15.10;99.90;;;;;;5011952;28;20542;-72
2023/09/25 06:53:23;;;;;;;3.07;2.87;;;15.50;99.90;;;;;;5012181;28;20598;-71
2023/09/25 06:55:49;;;;;;;5.60;3.03;;;15.90;99.90;;;;;;5012211;28;20180;-71
2023/09/25 06:58:15;;;;;;;8.90;3.10;;;16.20;99.90;;;;;;5011949;28;20211;-72
2023/09/25 07:00:43;;;;;;;5.43;3.13;;;16.30;99.90;;;;;;5011999;28;20260;-71
2023/09/25 07:03:09;;;;;;;5.13;3.37;;;16.50;99.90;;;;;;5004097;28;20179;-71
2023/09/25 07:05:34;;;;;;;3.33;3.10;;;16.50;99.90;;;;;;5012133;28;20543;-72
2023/09/25 07:08:00;;;;;;;3.30;2.97;;;16.60;99.90;;;;;;5020003;28;20177;-72
2023/09/25 07:10:26;;;;;;;3.63;3.33;;;16.70;99.90;;;;;;5011617;28;20200;-71
2023/09/25 07:12:52;;;;;;;6.63;3.33;;;16.80;99.90;;;;;;5011908;28;20173;-74
2023/09/25 07:15:19;;;;;;;3.50;3.17;;;16.90;99.90;;;;;;5011902;28;20579;-71
2023/09/25 07:17:47;;;;;;;5.37;3.07;;;17.00;99.90;;;;;;5011652;28;20659;-72
2023/09/25 07:20:12;;;;;;;4.27;3.67;;;17.20;99.90;;;;;;5011395;28;20185;-71
2023/09/25 07:22:38;;;;;;;3.50;3.10;;;17.30;99.90;;;;;;5011348;28;20180;-71
2023/09/25 07:25:04;;;;;;;4.07;3.10;;;17.40;99.90;;;;;;5011428;28;20188;-71
2023/09/25 07:27:30;;;;;;;3.73;2.90;;;17.40;99.90;;;;;;5010404;28;20188;-72
2023/09/25 07:29:56;;;;;;;4.47;2.90;;;17.40;99.90;;;;;;5011392;28;20216;-72
2023/09/25 07:32:22;;;;;;;3.10;2.90;;;17.20;99.90;;;;;;5011338;28;20295;-71
2023/09/25 07:34:48;;;;;;;4.67;2.90;;;17.10;99.90;;;;;;5011736;28;20167;-72
2023/09/25 07:37:13;;;;;;;3.00;2.73;;;17.20;99.90;;;;;;5011327;28;20179;-71
2023/09/25 07:39:40;;;;;;;4.37;2.87;;;17.30;99.90;;;;;;5011486;28;20722;-70
2023/09/25 07:42:10;;;;;;;5.20;2.70;;;17.50;99.90;;;;;;5011414;28;20283;-72
2023/09/25 07:44:36;;;;;;;3.80;3.00;;;17.90;99.90;;;;;;5011495;28;20610;-72
2023/09/25 07:47:06;;;;;;;3.60;3.13;;;18.20;99.90;;;;;;5011117;28;20259;-71
2023/09/25 07:49:40;;;;;;;3.87;3.10;;;18.50;99.90;;;;;;5011215;28;20706;-71
2023/09/25 07:52:15;;;;;;;3.00;2.43;;;18.70;99.90;;;;;;5011161;28;20276;-71
2023/09/25 07:54:44;;;;;;;3.77;2.50;;;19.10;99.90;;;;;;5011437;28;20234;-72
2023/09/25 07:57:21;;;;;;;4.30;2.83;;;19.40;99.90;;;;;;5011072;28;20176;-71
2023/09/25 07:59:47;;;;;;;4.00;3.07;;;19.60;99.90;;;;;;5011185;28;20793;-71
2023/09/25 08:02:20;;;;;;;3.43;2.90;;;19.60;99.90;;;;;;5019207;28;20183;-71
2023/09/25 08:04:47;;;;;;;4.03;2.90;;;19.60;99.90;;;;;;5011319;28;20187;-74
2023/09/25 08:07:13;;;;;;;3.30;3.10;;;19.70;99.90;;;;;;5011228;28;20180;-72
2023/09/25 08:09:39;;;;;;;3.83;3.43;;;19.50;99.90;;;;;;5011360;28;20548;-72
2023/09/25 08:12:05;;;;;;;4.55;4.25;;;19.50;99.90;;;;;;5010953;28;20168;-72
2023/09/25 08:14:32;;;;;;;3.83;3.53;;;19.50;99.90;;;;;;5010794;28;20180;-72
2023/09/25 08:16:57;;;;;;;2.92;2.72;;;19.70;99.90;;;;;;5009518;28;20187;-72
2023/09/25 08:19:23;;;;;;;4.35;3.40;;;19.80;99.90;;;;;;5009632;28;20196;-71
2023/09/25 08:21:51;;;;;;;2.80;2.47;;;20.00;99.90;;;;;;5010881;28;20552;-71
2023/09/25 08:24:17;;;;;;;3.55;2.88;;;20.00;99.90;;;;;;5011095;28;20183;-73
2023/09/25 08:26:46;;;;;;;4.55;3.17;;;20.00;99.90;;;;;;5011026;28;20176;-73
2023/09/25 08:29:16;;;;;;;3.20;2.92;;;20.10;99.90;;;;;;5010513;28;20687;-72
2023/09/25 08:31:43;;;;;;;3.15;2.78;;;20.10;99.90;;;;;;5010775;28;20652;-72
2023/09/25 08:34:09;;;;;;;5.22;3.13;;;20.10;99.90;;;;;;5013188;28;20227;-72
2023/09/25 08:36:35;;;;;;;3.58;3.20;;;20.10;99.90;;;;;;5014932;28;20168;-72
2023/09/25 08:39:01;;;;;;;3.75;2.70;;;20.10;99.90;;;;;;5014825;28;20757;-72
2023/09/25 08:41:28;;;;;;;3.08;2.80;;;20.10;99.90;;;;;;5015059;28;20218;-73
2023/09/25 08:43:54;;;;;;;5.13;2.95;;;20.10;99.90;;;;;;5015439;28;20242;-72
2023/09/25 08:46:20;;;;;;;4.80;3.40;;;20.20;99.90;;;;;;5014064;28;20186;-72
2023/09/25 08:48:47;;;;;;;5.07;2.90;;;20.30;99.90;;;;;;5015262;28;20568;-73
2023/09/25 08:51:13;;;;;;;4.40;2.63;;;20.50;99.90;;;;;;5014865;28;20179;-74
2023/09/25 08:53:38;;;;;;;2.90;2.70;;;20.50;99.90;;;;;;5014931;28;20579;-72
2023/09/25 08:56:05;;;;;;;3.78;3.00;;;20.70;99.90;;;;;;5015356;28;20184;-73
2023/09/25 08:58:32;;;;;;;4.05;3.13;;;20.90;99.90;;;;;;5015192;28;20200;-74
2023/09/25 09:00:58;;;;;;;3.00;2.70;;;21.10;99.90;;;;;;5013551;28;20727;-73
2023/09/25 09:03:27;;;;;;;3.92;2.60;;;21.40;99.90;;;;;;5014869;28;20176;-73
2023/09/25 09:05:53;;;;;;;3.65;2.78;;;21.70;99.90;;;;;;5014330;28;20199;-73
2023/09/25 09:08:19;;;;;;;5.78;2.30;;;22.00;99.90;;;;;;5013926;28;20219;-73
2023/09/25 09:10:44;;;;;;;5.88;2.40;;;22.40;99.90;;;;;;5014010;28;20168;-73
2023/09/25 09:13:10;;;;;;;7.60;2.70;;;22.70;99.90;;;;;;5013731;28;20172;-73
2023/09/25 09:15:38;;;;;;;3.00;2.20;;;22.80;99.90;;;;;;5013869;28;20176;-73
2023/09/25 09:18:24;;;;;;;2.65;2.10;;;23.00;99.90;;;;;;5013877;28;20206;-74
2023/09/25 09:20:50;;;;;;;2.70;2.50;;;23.00;99.90;;;;;;5012535;28;20779;-73
2023/09/25 09:23:16;;;;;;;2.70;2.50;;;22.80;99.90;;;;;;5013675;28;20295;-73
2023/09/25 09:25:48;;;;;;;3.88;2.30;;;22.60;99.90;;;;;;5014060;28;20263;-74
2023/09/25 09:28:13;;;;;;;4.20;2.30;;;22.70;99.90;;;;;;5013516;28;20214;-74
2023/09/25 09:30:41;;;;;;;2.47;2.28;;;22.70;99.90;;;;;;5012361;28;20679;-73
2023/09/25 09:33:10;;;;;;;4.10;2.47;;;22.90;99.90;;;;;;5013457;28;20180;-73
2023/09/25 09:35:36;;;;;;;3.10;2.17;;;23.20;99.90;;;;;;5013883;28;20176;-73
2023/09/25 09:38:05;;;;;;;4.20;2.30;;;23.40;99.90;;;;;;5013516;28;20180;-73
2023/09/25 09:40:31;;;;;;;2.75;2.13;;;23.50;99.90;;;;;;5018792;28;20179;-70
2023/09/25 09:42:58;;;;;;;3.25;2.30;;;23.60;99.90;;;;;;5015900;28;20194;-70
2023/09/25 09:45:23;;;;;;;3.47;3.17;;;23.60;99.90;;;;;;5012849;28;20354;-70
2023/09/25 09:47:50;;;;;;;2.50;2.30;;;23.80;99.90;;;;;;5013502;28;20242;-72
2023/09/25 09:50:26;;;;;;;4.13;2.55;;;23.90;99.90;;;;;;5012720;28;20200;-72
2023/09/25 09:52:52;;;;;;;2.45;2.25;;;24.10;99.90;;;;;;5013374;28;20200;-72
2023/09/25 09:55:21;;;;;;;3.33;2.40;;;24.00;99.90;;;;;;5013302;28;20671;-72
2023/09/25 09:57:47;;;;;;;2.33;2.13;;;24.00;99.90;;;;;;5013230;28;20176;-72
2023/09/25 10:00:13;;;;;;;3.40;2.33;;;24.00;99.90;;;;;;5012831;28;20230;-73
2023/09/25 10:02:40;;;;;;;2.45;2.25;;;23.90;99.90;;;;;;5013291;28;20180;-71
2023/09/25 10:05:10;;;;;;;4.07;2.45;;;23.70;99.90;;;;;;5012755;28;20204;-72
2023/09/25 10:08:06;;;;;;;3.10;2.78;;;23.50;99.90;;;;;;5021145;28;20242;-71
2023/09/25 10:10:36;;;;;;;3.08;2.40;;;23.40;99.90;;;;;;5006426;28;20567;-72
2023/09/25 10:13:06;;;;;;;6.82;2.80;;;23.50;99.90;;;;;;5013016;28;20528;-71
2023/09/25 10:15:31;;;;;;;3.28;2.30;;;23.40;99.90;;;;;;5012381;28;20176;-71
2023/09/25 10:17:57;;;;;;;3.55;2.70;;;23.40;99.90;;;;;;5013095;28;20176;-72
2023/09/25 10:20:35;;;;;;;2.92;2.67;;;23.30;99.90;;;;;;5012572;28;20180;-72
2023/09/25 10:23:06;;;;;;;3.10;2.50;;;23.30;99.90;;;;;;5012708;28;20592;-71
2023/09/25 10:25:46;;;;;;;2.78;2.45;;;23.30;99.90;;;;;;5012770;28;20188;-72
2023/09/25 10:28:24;;;;;;;3.03;2.70;;;23.40;99.90;;;;;;5012605;28;20203;-72
2023/09/25 10:30:50;;;;;;;4.40;2.45;;;23.50;99.90;;;;;;5011211;28;20234;-72
2023/09/25 10:33:19;;;;;;;3.78;2.67;;;23.60;99.90;;;;;;5012325;28;20176;-72
2023/09/25 10:35:50;;;;;;;3.00;2.70;;;23.60;99.90;;;;;;5012648;28;20265;-72
2023/09/25 10:38:21;;;;;;;3.78;2.35;;;23.60;99.90;;;;;;5012267;28;20791;-72
2023/09/25 10:40:52;;;;;;;3.55;2.65;;;23.60;99.90;;;;;;5012336;28;20172;-71
2023/09/25 10:43:23;;;;;;;4.05;2.63;;;23.60;99.90;;;;;;5011894;28;20195;-71
2023/09/25 10:45:49;;;;;;;3.67;2.38;;;23.70;99.90;;;;;;5012403;28;20172;-71
2023/09/25 10:48:16;;;;;;;2.60;2.40;;;23.60;99.90;;;;;;5012117;28;20208;-73
2023/09/25 10:50:43;;;;;;;2.90;2.47;;;23.50;99.90;;;;;;5012252;28;20235;-72
2023/09/25 10:53:11;;;;;;;2.97;2.70;;;23.30;99.90;;;;;;5012221;28;20718;-72
2023/09/25 10:55:38;;;;;;;2.63;2.42;;;23.30;99.90;;;;;;5011478;28;20179;-71
2023/09/25 10:58:04;;;;;;;2.85;2.50;;;23.40;99.90;;;;;;5011969;28;20228;-71
2023/09/25 11:00:32;;;;;;;2.90;2.58;;;23.40;99.90;;;;;;5011866;28;20190;-71
2023/09/25 11:03:01;;;;;;;2.65;2.45;;;23.30;99.90;;;;;;5012158;28;20524;-71
2023/09/25 11:05:31;;;;;;;4.07;2.53;;;23.30;99.90;;;;;;5011999;28;20564;-72
2023/09/25 11:07:57;;;;;;;2.50;2.30;;;23.20;99.90;;;;;;5011897;28;20180;-72
2023/09/25 11:10:44;;;;;;;3.47;2.50;;;23.20;99.90;;;;;;5011496;28;20265;-72
2023/09/25 11:13:11;;;;;;;2.60;2.40;;;23.20;99.90;;;;;;5011792;28;20179;-72
2023/09/25 11:15:37;;;;;;;3.28;2.38;;;23.20;99.90;;;;;;5011547;28;20176;-73
2023/09/25 11:18:06;;;;;;;3.47;2.50;;;23.20;99.90;;;;;;5011759;28;20610;-72
2023/09/25 11:20:33;;;;;;;2.97;2.47;;;23.30;99.90;;;;;;5011541;28;20180;-72
2023/09/25 11:23:15;;;;;;;2.97;2.53;;;23.40;99.90;;;;;;5011754;28;20176;-71
2023/09/25 11:25:44;;;;;;;3.35;2.35;;;23.50;99.90;;;;;;5011816;28;20183;-72
2023/09/25 11:28:20;;;;;;;2.58;2.38;;;23.50;99.90;;;;;;5011515;28;20220;-71
2023/09/25 11:30:47;;;;;;;3.15;2.45;;;23.60;99.90;;;;;;5011447;28;20291;-71
2023/09/25 11:33:17;;;;;;;2.63;2.42;;;23.60;99.90;;;;;;5011612;28;20234;-72
2023/09/25 11:35:42;;;;;;;4.18;2.40;;;23.70;99.90;;;;;;5010402;28;20168;-72
2023/09/25 11:38:17;;;;;;;3.45;2.60;;;23.80;99.90;;;;;;5011340;28;20562;-71
2023/09/25 11:40:43;;;;;;;2.95;2.33;;;23.90;99.90;;;;;;5010041;28;20262;-73
2023/09/25 11:43:09;;;;;;;2.47;2.17;;;24.00;99.90;;;;;;5011220;28;20664;-70
2023/09/25 11:45:35;;;;;;;2.65;2.45;;;24.20;99.90;;;;;;5011378;28;20180;-70
2023/09/25 11:48:01;;;;;;;2.80;2.60;;;24.30;99.90;;;;;;5011349;28;20195;-71
2023/09/25 11:50:28;;;;;;;3.03;2.83;;;24.20;99.90;;;;;;5011051;28;20200;-70
2023/09/25 11:52:54;;;;;;;5.43;2.80;;;24.30;99.90;;;;;;5011425;28;20176;-70
2023/09/25 11:55:19;;;;;;;2.70;2.50;;;24.30;99.90;;;;;;5019438;28;20187;-71
2023/09/25 11:57:46;;;;;;;2.95;2.65;;;24.50;99.90;;;;;;5043849;28;20259;-71
2023/09/25 12:00:15;;;;;;;2.55;2.38;;;24.70;99.90;;;;;;5020308;28;20183;-71
2023/09/25 12:02:43;;;;;;;4.50;2.40;;;24.70;99.90;;;;;;5012154;28;20180;-71
2023/09/25 12:05:13;;;;;;;3.55;2.65;;;24.80;99.90;;;;;;5011541;28;20242;-70
2023/09/25 12:07:40;;;;;;;3.50;2.58;;;24.90;99.90;;;;;;5013052;28;20184;-71
2023/09/25 12:10:07;;;;;;;3.15;2.42;;;24.90;99.90;;;;;;5015014;28;20758;-71
2023/09/25 12:12:36;;;;;;;3.13;2.13;;;25.10;99.90;;;;;;5015208;28;20188;-70
2023/09/25 12:15:03;;;;;;;2.70;2.30;;;25.20;99.90;;;;;;5015154;28;20182;-71
2023/09/25 12:17:33;;;;;;;2.55;2.30;;;25.30;99.90;;;;;;5014989;28;20184;-71
2023/09/25 12:20:01;;;;;;;4.18;2.45;;;25.30;99.90;;;;;;5015045;28;20196;-71
2023/09/25 12:22:27;;;;;;;3.00;2.70;;;25.60;99.90;;;;;;5007032;28;20250;-70
2023/09/25 12:24:52;;;;;;;2.75;2.30;;;25.70;99.90;;;;;;5015087;28;20176;-71
2023/09/25 12:27:18;;;;;;;2.42;2.15;;;25.80;99.90;;;;;;5017373;28;20247;-71
2023/09/25 12:29:44;;;;;;;2.58;2.30;;;26.00;99.90;;;;;;5020300;28;20222;-71
2023/09/25 12:32:11;;;;;;;2.33;2.03;;;25.90;99.90;;;;;;5014743;28;20202;-71
2023/09/25 12:34:38;;;;;;;2.05;1.92;;;26.10;99.90;;;;;;5014887;28;20245;-71
2023/09/25 12:37:04;;;;;;;2.10;2.00;;;26.20;99.90;;;;;;5014777;28;20184;-71
2023/09/25 12:39:30;;;;;;;2.92;2.42;;;26.30;99.90;;;;;;5014431;28;20200;-71
2023/09/25 12:41:55;;;;;;;2.50;2.40;;;26.40;99.90;;;;;;5013154;28;20191;-71
2023/09/25 12:44:21;;;;;;;2.30;2.10;;;26.50;99.90;;;;;;5014619;28;20191;-71
2023/09/25 12:46:47;;;;;;;3.97;2.40;;;26.60;99.90;;;;;;5013682;28;20688;-71